createdAt,value
2023-02-09T00:02:20.906Z,104198.39
2023-02-09T00:04:49.253Z,104197.10
2023-02-09T00:07:18.038Z,104203.14
2023-02-09T00:09:46.220Z,104195.30
2023-02-09T00:12:33.536Z,104193.02
2023-02-09T00:15:02.231Z,104193.10
2023-02-09T00:17:33.989Z,104190.73
2023-02-09T00:20:06.543Z,104189.79
2023-02-09T00:22:35.058Z,104192.57
2023-02-09T00:25:03.654Z,104188.88
2023-02-09T00:27:35.781Z,104181.72
2023-02-09T00:30:05.907Z,104177.14
2023-02-09T00:32:34.326Z,104181.23
2023-02-09T00:35:02.715Z,104173.86
2023-02-09T00:37:30.991Z,104174.98
2023-02-09T00:39:59.372Z,104172.16
2023-02-09T00:42:27.565Z,104170.08
2023-02-09T00:44:55.951Z,104171.91
2023-02-09T00:47:24.321Z,104166.48
2023-02-09T00:49:52.710Z,104162.81
2023-02-09T00:52:21.195Z,104160.80
2023-02-09T00:54:49.501Z,104161.75
2023-02-09T00:57:18.069Z,104159.04
2023-02-09T00:59:46.759Z,104157.79
2023-02-09T01:02:15.347Z,104157.45
2023-02-09T01:04:44.169Z,104153.95
2023-02-09T01:07:13.752Z,104155.28
2023-02-09T01:09:41.940Z,104155.77
2023-02-09T01:12:10.417Z,104154.23
2023-02-09T01:14:39.417Z,104147.78
2023-02-09T01:17:08.001Z,104142.98
2023-02-09T01:19:36.692Z,104144.45
2023-02-09T01:22:05.186Z,104139.29
2023-02-09T01:24:33.565Z,104132.60
2023-02-09T01:27:02.906Z,104128.52
2023-02-09T01:29:32.996Z,104131.45
2023-02-09T01:32:01.948Z,104133.31
2023-02-09T01:34:30.380Z,104128.27
2023-02-09T01:36:59.374Z,104123.32
2023-02-09T01:39:27.668Z,104122.53
2023-02-09T01:41:55.890Z,104122.55
2023-02-09T01:44:24.035Z,104120.27
2023-02-09T01:46:52.626Z,104122.28
2023-02-09T01:49:27.239Z,104121.02
2023-02-09T01:52:01.471Z,104122.48
2023-02-09T01:54:38.844Z,104125.57
2023-02-09T01:57:18.897Z,104125.45
2023-02-09T01:59:51.808Z,104123.83
2023-02-09T02:02:21.739Z,104124.95
2023-02-09T02:04:51.896Z,104119.48
2023-02-09T02:07:38.534Z,104120.11
2023-02-09T02:10:07.554Z,104108.15
2023-02-09T02:12:38.170Z,104104.31
2023-02-09T02:15:07.707Z,104110.10
2023-02-09T02:18:06.243Z,104112.09
2023-02-09T02:20:49.577Z,104118.68
2023-02-09T02:23:39.611Z,104124.48
2023-02-09T02:26:32.598Z,104118.66
2023-02-09T02:29:44.165Z,104117.94
2023-02-09T02:32:57.775Z,104118.19
2023-02-09T02:35:31.687Z,104113.77
2023-02-09T02:38:20.036Z,104114.90
2023-02-09T02:41:08.467Z,104116.35
2023-02-09T02:44:01.722Z,104113.96
2023-02-09T02:46:53.037Z,104114.82
2023-02-09T02:49:33.172Z,104106.77
2023-02-09T02:52:06.966Z,104105.61
2023-02-09T02:55:00.663Z,104104.34
2023-02-09T02:57:33.412Z,104107.31
2023-02-09T03:00:08.741Z,104101.86
2023-02-09T03:02:41.444Z,104092.13
2023-02-09T03:05:10.670Z,104089.23
2023-02-09T03:07:38.956Z,104089.23
2023-02-09T03:10:24.021Z,104091.97
2023-02-09T03:13:04.890Z,104089.62
2023-02-09T03:15:42.755Z,104090.49
2023-02-09T03:18:36.815Z,104091.83
2023-02-09T03:21:21.324Z,104090.09
2023-02-09T03:24:07.150Z,104090.23
2023-02-09T03:26:47.856Z,104092.55
2023-02-09T03:29:18.343Z,104087.52
2023-02-09T03:31:49.183Z,104086.24
2023-02-09T03:34:18.384Z,104090.33
2023-02-09T03:36:52.380Z,104088.27
2023-02-09T03:39:21.042Z,104093.13
2023-02-09T03:41:49.522Z,104088.25
2023-02-09T03:44:27.122Z,104091.30
2023-02-09T03:46:59.701Z,104090.20
2023-02-09T03:49:46.705Z,104089.38
2023-02-09T03:52:17.052Z,104085.45
2023-02-09T03:54:45.394Z,104084.95
2023-02-09T03:57:13.801Z,104086.41
2023-02-09T03:59:42.207Z,104082.90
2023-02-09T04:02:11.131Z,104073.89
2023-02-09T04:04:39.674Z,104080.48
2023-02-09T04:07:08.053Z,104082.52
2023-02-09T04:09:37.779Z,104085.27
2023-02-09T04:12:06.285Z,104082.92
2023-02-09T04:14:34.653Z,104079.92
2023-02-09T04:17:02.920Z,104082.58
2023-02-09T04:19:31.306Z,104083.73
2023-02-09T04:22:00.306Z,104081.59
2023-02-09T04:24:29.309Z,104081.39
2023-02-09T04:26:57.794Z,104075.41
2023-02-09T04:29:26.282Z,104075.42
2023-02-09T04:31:54.907Z,104081.08
2023-02-09T04:34:24.821Z,104081.75
2023-02-09T04:36:53.390Z,104082.02
2023-02-09T04:39:22.379Z,104086.77
2023-02-09T04:41:50.662Z,104084.44
2023-02-09T04:44:18.939Z,104087.08
2023-02-09T04:46:47.439Z,104085.02
2023-02-09T04:49:15.716Z,104088.05
2023-02-09T04:51:44.096Z,104086.16
2023-02-09T04:54:12.482Z,104086.77
2023-02-09T04:56:40.677Z,104088.16
2023-02-09T04:59:29.102Z,104086.54
2023-02-09T05:01:57.591Z,104088.51
2023-02-09T05:04:26.079Z,104086.34
2023-02-09T05:06:54.562Z,104088.39
2023-02-09T05:09:22.952Z,104087.76
2023-02-09T05:11:51.229Z,104090.95
2023-02-09T05:14:19.627Z,104095.95
2023-02-09T05:16:47.863Z,104102.98
2023-02-09T05:19:16.174Z,104103.96
2023-02-09T05:21:44.356Z,104103.20
2023-02-09T05:24:12.757Z,104112.90
2023-02-09T05:26:41.132Z,104111.98
2023-02-09T05:29:10.074Z,104110.84
2023-02-09T05:31:38.654Z,104104.08
2023-02-09T05:34:07.099Z,104110.59
2023-02-09T05:36:35.591Z,104111.38
2023-02-09T05:39:04.387Z,104110.33
2023-02-09T05:41:51.286Z,104104.50
2023-02-09T05:44:19.467Z,104104.27
2023-02-09T05:46:47.750Z,104104.39
2023-02-09T05:49:16.650Z,104110.06
2023-02-09T05:51:45.235Z,104111.08
2023-02-09T05:54:13.625Z,104118.65
2023-02-09T05:56:41.902Z,104116.52
2023-02-09T05:59:10.318Z,104120.59
2023-02-09T06:01:40.149Z,104120.95
2023-02-09T06:04:09.381Z,104116.66
2023-02-09T06:06:37.685Z,104117.05
2023-02-09T06:09:06.078Z,104107.30
2023-02-09T06:11:35.373Z,104110.55
2023-02-09T06:14:03.869Z,104113.27
2023-02-09T06:16:32.349Z,104113.02
2023-02-09T06:19:00.533Z,104114.77
2023-02-09T06:21:29.115Z,104112.89
2023-02-09T06:23:57.296Z,104108.95
2023-02-09T06:26:25.685Z,104106.36
2023-02-09T06:28:54.372Z,104106.06
2023-02-09T06:31:23.358Z,104099.27
2023-02-09T06:33:51.756Z,104096.93
2023-02-09T06:36:20.246Z,104099.98
2023-02-09T06:38:49.367Z,104104.48
2023-02-09T06:41:17.738Z,104099.67
2023-02-09T06:43:46.037Z,104098.41
2023-02-09T06:46:14.539Z,104095.61
2023-02-09T06:48:43.092Z,104093.45
2023-02-09T06:51:14.548Z,104088.39
2023-02-09T06:53:43.543Z,104085.48
2023-02-09T06:56:13.334Z,104089.15
2023-02-09T06:58:42.472Z,104089.88
2023-02-09T07:01:15.831Z,104087.89
2023-02-09T07:03:45.090Z,104089.02
2023-02-09T07:06:16.116Z,104082.78
2023-02-09T07:08:45.701Z,104081.23
2023-02-09T07:11:15.648Z,104080.55
2023-02-09T07:13:44.465Z,104079.78
2023-02-09T07:16:13.189Z,104075.40
2023-02-09T07:18:41.716Z,104074.02
2023-02-09T07:21:15.733Z,104078.52
2023-02-09T07:23:44.111Z,104068.60
2023-02-09T07:26:17.786Z,104068.05
2023-02-09T07:28:46.408Z,104072.35
2023-02-09T07:31:16.717Z,104074.37
2023-02-09T07:33:45.629Z,104071.25
2023-02-09T07:36:15.969Z,104068.27
2023-02-09T07:38:44.545Z,104069.95
2023-02-09T07:41:15.912Z,104076.73
2023-02-09T07:43:44.387Z,104076.64
2023-02-09T07:46:16.665Z,104071.08
2023-02-09T07:48:45.797Z,104071.43
2023-02-09T07:51:16.177Z,104072.79
2023-02-09T07:53:44.575Z,104079.23
2023-02-09T07:56:13.445Z,104071.61
2023-02-09T07:58:41.853Z,104075.03
2023-02-09T08:01:12.905Z,104072.74
2023-02-09T08:03:44.664Z,104069.41
2023-02-09T08:06:36.256Z,104065.29
2023-02-09T08:09:10.566Z,104053.99
2023-02-09T08:11:43.005Z,104049.10
2023-02-09T08:14:43.206Z,104048.80
2023-02-09T08:17:21.189Z,104049.08
2023-02-09T08:20:20.888Z,104044.01
2023-02-09T08:22:53.761Z,104045.05
2023-02-09T08:25:25.173Z,104039.41
2023-02-09T08:27:53.771Z,104036.85
2023-02-09T08:30:22.406Z,104032.09
2023-02-09T08:32:50.684Z,104033.16
2023-02-09T08:35:18.972Z,104036.80
2023-02-09T08:37:47.458Z,104042.55
2023-02-09T08:40:15.939Z,104041.05
2023-02-09T08:42:44.224Z,104042.38
2023-02-09T08:45:12.604Z,104039.02
2023-02-09T08:47:40.887Z,104041.66
2023-02-09T08:50:09.679Z,104035.17
2023-02-09T08:52:38.291Z,104033.31
2023-02-09T08:55:07.266Z,104037.41
2023-02-09T08:57:44.115Z,104036.59
2023-02-09T09:00:14.377Z,104036.03
2023-02-09T09:02:42.560Z,104031.01
2023-02-09T09:05:11.965Z,104033.09
2023-02-09T09:07:40.252Z,104028.91
2023-02-09T09:10:09.503Z,104020.19
2023-02-09T09:12:38.357Z,104017.05
2023-02-09T09:15:07.207Z,104022.91
2023-02-09T09:17:35.536Z,104018.56
2023-02-09T09:20:04.486Z,104011.66
2023-02-09T09:22:32.810Z,104010.58
2023-02-09T09:25:01.103Z,104004.58
2023-02-09T09:27:29.580Z,103995.44
2023-02-09T09:29:57.759Z,103993.23
2023-02-09T09:32:26.278Z,103989.67
2023-02-09T09:34:59.458Z,103988.77
2023-02-09T09:37:27.825Z,103985.41
2023-02-09T09:39:56.513Z,103979.45
2023-02-09T09:42:32.471Z,103974.02
2023-02-09T09:45:01.637Z,103979.11
2023-02-09T09:47:42.444Z,103980.65
2023-02-09T09:50:26.591Z,103980.88
2023-02-09T09:53:01.420Z,103984.27
2023-02-09T09:55:32.053Z,103980.31
2023-02-09T09:58:05.218Z,103970.93
2023-02-09T10:00:38.522Z,103970.27
2023-02-09T10:03:18.698Z,103967.57
2023-02-09T10:05:55.980Z,103964.55
2023-02-09T10:08:41.466Z,103951.94
2023-02-09T10:11:20.694Z,103945.18
2023-02-09T10:13:52.961Z,103941.04
2023-02-09T10:16:34.786Z,103931.56
2023-02-09T10:19:06.106Z,103924.16
2023-02-09T10:21:36.318Z,103919.62
2023-02-09T10:24:14.861Z,103916.17
2023-02-09T10:26:43.552Z,103912.89
2023-02-09T10:29:11.921Z,103916.96
2023-02-09T10:31:44.939Z,103912.46
2023-02-09T10:34:17.492Z,103908.67
2023-02-09T10:36:55.408Z,103910.43
2023-02-09T10:39:35.804Z,103898.21
2023-02-09T10:42:19.510Z,103900.09
2023-02-09T10:44:54.211Z,103899.27
2023-02-09T10:47:25.274Z,103899.55
2023-02-09T10:50:00.289Z,103893.11
2023-02-09T10:52:36.862Z,103883.95
2023-02-09T10:55:23.057Z,103878.64
2023-02-09T10:57:51.543Z,103871.77
2023-02-09T11:00:19.699Z,103865.75
2023-02-09T11:03:02.020Z,103866.23
2023-02-09T11:05:35.880Z,103862.00
2023-02-09T11:08:17.112Z,103860.69
2023-02-09T11:11:32.058Z,103859.38
2023-02-09T11:14:01.308Z,103854.67
2023-02-09T11:16:36.601Z,103853.16
2023-02-09T11:19:22.857Z,103852.77
2023-02-09T11:22:12.304Z,103848.87
2023-02-09T11:24:55.874Z,103845.13
2023-02-09T11:27:30.006Z,103841.43
2023-02-09T11:30:39.978Z,103833.33
2023-02-09T11:33:53.263Z,103827.30
2023-02-09T11:36:28.286Z,103827.46
2023-02-09T11:39:12.222Z,103823.45
2023-02-09T11:42:09.264Z,103818.88
2023-02-09T11:44:44.623Z,103809.23
2023-02-09T11:47:21.066Z,103805.52
2023-02-09T11:49:53.740Z,103806.38
2023-02-09T11:52:34.428Z,103802.38
2023-02-09T11:55:19.595Z,103803.10
2023-02-09T11:57:53.504Z,103796.47
2023-02-09T12:00:28.032Z,103794.21
2023-02-09T12:03:04.607Z,103791.64
2023-02-09T12:05:33.492Z,103788.46
2023-02-09T12:08:23.775Z,103787.07
2023-02-09T12:11:04.297Z,103778.55
2023-02-09T12:13:58.001Z,103776.15
2023-02-09T12:16:28.984Z,103771.52
2023-02-09T12:18:57.230Z,103767.81
2023-02-09T12:21:35.071Z,103769.52
2023-02-09T12:24:27.453Z,103766.00
2023-02-09T12:26:56.792Z,103763.49
2023-02-09T12:29:41.540Z,103761.93
2023-02-09T12:32:37.635Z,103752.54
2023-02-09T12:35:37.539Z,103750.30
2023-02-09T12:38:15.435Z,103754.61
2023-02-09T12:40:44.325Z,103750.29
2023-02-09T12:43:25.670Z,103749.00
2023-02-09T12:46:12.752Z,103745.00
2023-02-09T12:48:53.116Z,103739.03
2023-02-09T12:51:37.530Z,103738.66
2023-02-09T12:54:38.056Z,103727.81
2023-02-09T12:57:15.456Z,103723.15
2023-02-09T12:59:50.554Z,103718.96
2023-02-09T13:02:46.447Z,103713.19
2023-02-09T13:05:25.423Z,103706.09
2023-02-09T13:08:16.002Z,103699.80
2023-02-09T13:10:47.564Z,103690.40
2023-02-09T13:13:28.432Z,103685.38
2023-02-09T13:16:05.430Z,103688.70
2023-02-09T13:18:56.723Z,103693.30
2023-02-09T13:21:40.154Z,103696.33
2023-02-09T13:24:36.504Z,103696.23
2023-02-09T13:27:18.696Z,103688.09
2023-02-09T13:29:59.958Z,103687.09
2023-02-09T13:32:37.345Z,103689.21
2023-02-09T13:35:29.775Z,103685.27
2023-02-09T13:38:00.623Z,103684.20
2023-02-09T13:40:33.106Z,103685.22
2023-02-09T13:43:07.310Z,103678.55
2023-02-09T13:45:35.750Z,103676.62
2023-02-09T13:48:20.597Z,103673.98
2023-02-09T13:50:50.253Z,103672.15
2023-02-09T13:53:23.427Z,103672.73
2023-02-09T13:55:56.123Z,103669.09
2023-02-09T13:58:35.722Z,103668.13
2023-02-09T14:01:14.188Z,103669.34
2023-02-09T14:03:58.534Z,103663.46
2023-02-09T14:06:39.424Z,103658.95
2023-02-09T14:09:15.887Z,103658.51
2023-02-09T14:11:53.785Z,103655.92
2023-02-09T14:14:28.732Z,103658.52
2023-02-09T14:17:25.538Z,103653.82
2023-02-09T14:19:56.149Z,103651.42
2023-02-09T14:22:33.981Z,103656.45
2023-02-09T14:25:26.549Z,103649.97
2023-02-09T14:27:55.925Z,103646.52
2023-02-09T14:30:34.351Z,103642.56
2023-02-09T14:33:06.302Z,103639.89
2023-02-09T14:35:40.442Z,103638.82
2023-02-09T14:38:54.452Z,103641.15
2023-02-09T14:41:30.933Z,103642.58
2023-02-09T14:44:21.519Z,103643.11
2023-02-09T14:46:58.938Z,103639.50
2023-02-09T14:49:28.938Z,103634.11
2023-02-09T14:52:15.024Z,103630.39
2023-02-09T14:54:48.929Z,103627.67
2023-02-09T14:57:17.507Z,103631.48
2023-02-09T14:59:46.303Z,103634.05
2023-02-09T15:02:22.356Z,103634.47
2023-02-09T15:04:50.848Z,103636.63
2023-02-09T15:07:23.952Z,103636.66
2023-02-09T15:09:52.436Z,103640.20
2023-02-09T15:12:29.825Z,103642.84
2023-02-09T15:15:00.579Z,103646.88
2023-02-09T15:17:30.492Z,103652.67
2023-02-09T15:19:59.222Z,103651.25
2023-02-09T15:22:27.562Z,103655.43
2023-02-09T15:24:56.148Z,103653.59
2023-02-09T15:27:32.527Z,103652.23
2023-02-09T15:30:04.120Z,103651.39
2023-02-09T15:32:33.571Z,103650.39
2023-02-09T15:35:02.262Z,103655.20
2023-02-09T15:37:37.177Z,103657.23
2023-02-09T15:40:14.591Z,103662.58
2023-02-09T15:43:01.698Z,103659.84
2023-02-09T15:45:49.456Z,103652.19
2023-02-09T15:48:17.712Z,103652.28
2023-02-09T15:50:48.263Z,103653.05
2023-02-09T15:53:19.050Z,103653.96
2023-02-09T15:55:48.051Z,103647.48
2023-02-09T15:58:19.839Z,103647.89
2023-02-09T16:00:48.338Z,103647.96
2023-02-09T16:03:21.722Z,103651.34
2023-02-09T16:05:55.740Z,103651.52
2023-02-09T16:08:30.450Z,103651.15
2023-02-09T16:11:00.177Z,103654.70
2023-02-09T16:13:31.531Z,103653.28
2023-02-09T16:16:14.860Z,103650.96
2023-02-09T16:18:45.954Z,103651.09
2023-02-09T16:21:26.466Z,103654.30
2023-02-09T16:23:57.569Z,103650.59
2023-02-09T16:26:28.263Z,103647.96
2023-02-09T16:28:57.701Z,103644.52
2023-02-09T16:31:26.772Z,103644.67
2023-02-09T16:33:55.040Z,103643.00
2023-02-09T16:36:27.318Z,103644.42
2023-02-09T16:38:55.600Z,103637.19
2023-02-09T16:41:42.917Z,103640.92
2023-02-09T16:44:21.231Z,103636.10
2023-02-09T16:46:53.014Z,103636.72
2023-02-09T16:49:30.173Z,103637.09
2023-02-09T16:52:04.197Z,103635.98
2023-02-09T16:54:39.748Z,103637.60
2023-02-09T16:57:11.931Z,103638.16
2023-02-09T16:59:40.392Z,103637.50
2023-02-09T17:02:28.472Z,103640.52
2023-02-09T17:04:58.344Z,103636.88
2023-02-09T17:07:39.805Z,103638.16
2023-02-09T17:10:19.979Z,103636.91
2023-02-09T17:12:48.878Z,103630.41
2023-02-09T17:15:29.322Z,103632.66
2023-02-09T17:18:07.234Z,103635.90
2023-02-09T17:20:43.062Z,103637.55
2023-02-09T17:23:17.716Z,103638.45
2023-02-09T17:25:47.370Z,103635.83
2023-02-09T17:28:15.871Z,103632.20
2023-02-09T17:30:45.382Z,103631.73
2023-02-09T17:33:24.877Z,103629.09
2023-02-09T17:36:23.863Z,103629.05
2023-02-09T17:38:44.867Z,103621.34
2023-02-09T17:41:22.770Z,103626.52
2023-02-09T17:43:53.809Z,103619.35
2023-02-09T17:46:22.040Z,103619.50
2023-02-09T17:48:50.597Z,103621.07
2023-02-09T17:51:30.413Z,103619.96
2023-02-09T17:53:58.919Z,103625.63
2023-02-09T17:56:27.716Z,103629.98
2023-02-09T17:58:57.444Z,103634.25
2023-02-09T18:01:29.167Z,103632.33
2023-02-09T18:04:02.436Z,103632.12
2023-02-09T18:06:39.609Z,103629.52
2023-02-09T18:09:10.405Z,103630.34
2023-02-09T18:11:52.359Z,103626.52
2023-02-09T18:14:22.374Z,103625.86
2023-02-09T18:16:51.167Z,103620.94
2023-02-09T18:19:19.701Z,103621.71
2023-02-09T18:21:49.855Z,103615.36
2023-02-09T18:24:20.152Z,103620.38
2023-02-09T18:26:50.791Z,103617.69
2023-02-09T18:29:22.972Z,103621.45
2023-02-09T18:31:51.549Z,103623.52
2023-02-09T18:34:20.448Z,103623.63
2023-02-09T18:36:48.734Z,103622.66
2023-02-09T18:39:17.822Z,103619.69
2023-02-09T18:41:48.562Z,103617.23
2023-02-09T18:44:16.743Z,103620.82
2023-02-09T18:46:44.973Z,103625.85
2023-02-09T18:49:13.512Z,103620.65
2023-02-09T18:51:42.102Z,103621.70
2023-02-09T18:54:10.298Z,103620.77
2023-02-09T18:56:39.097Z,103615.66
2023-02-09T18:59:08.277Z,103614.70
2023-02-09T19:01:37.009Z,103614.00
2023-02-09T19:04:05.871Z,103612.52
2023-02-09T19:06:35.689Z,103611.59
2023-02-09T19:09:04.602Z,103612.98
2023-02-09T19:11:33.541Z,103608.91
2023-02-09T19:14:20.797Z,103609.73
2023-02-09T19:16:49.200Z,103605.56
2023-02-09T19:19:19.213Z,103602.76
2023-02-09T19:21:47.994Z,103603.27
2023-02-09T19:24:16.181Z,103593.63
2023-02-09T19:26:44.907Z,103587.88
2023-02-09T19:29:14.042Z,103594.48
2023-02-09T19:31:42.965Z,103595.30
2023-02-09T19:34:11.451Z,103590.41
2023-02-09T19:36:39.952Z,103591.85
2023-02-09T19:39:08.118Z,103594.95
2023-02-09T19:41:36.402Z,103598.25
2023-02-09T19:44:04.888Z,103598.34
2023-02-09T19:46:33.408Z,103597.34
2023-02-09T19:49:02.377Z,103599.52
2023-02-09T19:51:30.981Z,103598.49
2023-02-09T19:53:59.352Z,103598.11
2023-02-09T19:56:28.353Z,103598.85
2023-02-09T19:58:57.073Z,103601.39
2023-02-09T20:01:27.162Z,103606.92
2023-02-09T20:03:56.372Z,103605.59
2023-02-09T20:06:24.964Z,103600.48
2023-02-09T20:08:53.338Z,103599.73
2023-02-09T20:11:22.376Z,103598.69
2023-02-09T20:13:52.711Z,103599.41
2023-02-09T20:16:24.498Z,103594.16
2023-02-09T20:18:54.129Z,103595.60
2023-02-09T20:21:24.078Z,103595.47
2023-02-09T20:23:57.243Z,103586.35
2023-02-09T20:26:29.508Z,103583.27
2023-02-09T20:28:58.933Z,103585.16
2023-02-09T20:31:34.988Z,103583.51
2023-02-09T20:34:08.910Z,103584.66
2023-02-09T20:36:39.586Z,103586.55
2023-02-09T20:39:13.451Z,103586.40
2023-02-09T20:42:03.328Z,103586.02
2023-02-09T20:44:52.305Z,103580.05
2023-02-09T20:47:20.662Z,103583.55
2023-02-09T20:49:49.105Z,103584.29
2023-02-09T20:52:17.841Z,103576.45
2023-02-09T20:54:46.228Z,103575.02
2023-02-09T20:57:14.460Z,103570.79
2023-02-09T20:59:42.792Z,103572.89
2023-02-09T21:02:15.153Z,103575.92
2023-02-09T21:04:43.556Z,103568.02
2023-02-09T21:07:13.368Z,103559.66
2023-02-09T21:09:41.754Z,103553.40
2023-02-09T21:12:13.215Z,103548.41
2023-02-09T21:14:45.228Z,103553.95
2023-02-09T21:17:14.279Z,103559.99
2023-02-09T21:19:42.557Z,103565.36
2023-02-09T21:22:11.966Z,103560.02
2023-02-09T21:24:40.347Z,103554.20
2023-02-09T21:27:10.471Z,103556.33
2023-02-09T21:29:38.656Z,103559.32
2023-02-09T21:32:07.713Z,103559.62
2023-02-09T21:34:36.156Z,103559.54
2023-02-09T21:37:08.033Z,103560.46
2023-02-09T21:39:36.301Z,103557.93
2023-02-09T21:42:23.917Z,103551.55
2023-02-09T21:44:54.172Z,103548.99
2023-02-09T21:47:30.193Z,103553.46
2023-02-09T21:49:59.119Z,103553.81
2023-02-09T21:52:28.492Z,103548.16
2023-02-09T21:54:56.879Z,103547.12
2023-02-09T21:57:26.205Z,103543.65
2023-02-09T21:59:54.769Z,103541.73
2023-02-09T22:02:23.141Z,103536.83
2023-02-09T22:04:52.838Z,103533.86
2023-02-09T22:07:21.258Z,103532.52
2023-02-09T22:09:49.435Z,103528.20
2023-02-09T22:12:18.019Z,103527.12
2023-02-09T22:14:46.614Z,103523.56
2023-02-09T22:17:14.888Z,103525.15
2023-02-09T22:19:43.487Z,103522.13
2023-02-09T22:22:11.967Z,103521.07
2023-02-09T22:24:40.349Z,103519.09
2023-02-09T22:27:08.536Z,103522.29
2023-02-09T22:29:37.630Z,103521.70
2023-02-09T22:32:06.525Z,103517.14
2023-02-09T22:34:34.727Z,103519.09
2023-02-09T22:37:02.991Z,103519.03
2023-02-09T22:39:31.472Z,103516.50
2023-02-09T22:42:01.005Z,103513.79
2023-02-09T22:44:30.598Z,103510.78
2023-02-09T22:46:59.086Z,103506.11
2023-02-09T22:49:27.986Z,103508.64
2023-02-09T22:51:56.472Z,103508.02
2023-02-09T22:54:24.858Z,103507.94
2023-02-09T22:56:53.166Z,103506.67
2023-02-09T22:59:21.742Z,103509.07
2023-02-09T23:01:50.327Z,103502.02
2023-02-09T23:04:18.655Z,103501.25
2023-02-09T23:06:47.300Z,103506.15
2023-02-09T23:09:15.994Z,103509.81
2023-02-09T23:11:44.680Z,103509.98
2023-02-09T23:14:13.798Z,103507.20
2023-02-09T23:16:43.927Z,103503.45
2023-02-09T23:19:15.082Z,103501.23
2023-02-09T23:21:46.416Z,103500.10
2023-02-09T23:24:21.865Z,103495.66
2023-02-09T23:26:51.043Z,103496.41
2023-02-09T23:29:19.956Z,103493.11
2023-02-09T23:31:48.653Z,103491.79
2023-02-09T23:34:22.551Z,103482.11
2023-02-09T23:36:50.666Z,103482.92
2023-02-09T23:39:22.642Z,103481.74
2023-02-09T23:41:51.087Z,103481.88
2023-02-09T23:44:20.696Z,103477.71
2023-02-09T23:46:49.489Z,103472.69
2023-02-09T23:49:18.180Z,103468.05
2023-02-09T23:51:47.077Z,103466.70
2023-02-09T23:54:15.868Z,103468.27
2023-02-09T23:56:46.487Z,103469.19
2023-02-09T23:59:16.236Z,103464.61
